sensor_id;sensor_type;location;lat;lon;timestamp;pressure;altitude;pressure_sealevel;temperature;humidity
21203;BME280;10759;51.982;9.232;2023-08-06T00:00:42;99524.56;;;15.08;100.00
21203;BME280;10759;51.982;9.232;2023-08-06T00:03:12;99500.97;;;14.99;100.00
21203;BME280;10759;51.982;9.232;2023-08-06T00:05:41;99528.56;;;15.15;100.00
21203;BME280;10759;51.982;9.232;2023-08-06T00:08:09;99524.38;;;15.11;100.00
21203;BME280;10759;51.982;9.232;2023-08-06T00:10:39;99526.41;;;15.08;100.00
21203;BME280;10759;51.982;9.232;2023-08-06T00:13:07;99522.88;;;15.07;100.00
21203;BME280;10759;51.982;9.232;2023-08-06T00:15:35;99513.78;;;15.08;100.00
21203;BME280;10759;51.982;9.232;2023-08-06T00:18:03;99524.81;;;15.05;100.00
21203;BME280;10759;51.982;9.232;2023-08-06T00:20:32;99512.38;;;15.02;100.00
21203;BME280;10759;51.982;9.232;2023-08-06T00:23:00;99512.69;;;15.11;100.00
21203;BME280;10759;51.982;9.232;2023-08-06T00:25:28;99514.88;;;15.06;100.00
21203;BME280;10759;51.982;9.232;2023-08-06T00:27:56;99510.44;;;15.05;100.00
21203;BME280;10759;51.982;9.232;2023-08-06T00:30:24;99508.84;;;15.02;100.00
21203;BME280;10759;51.982;9.232;2023-08-06T00:32:52;99508.59;;;15.05;100.00
21203;BME280;10759;51.982;9.232;2023-08-06T00:35:20;99504.75;;;15.09;100.00
21203;BME280;10759;51.982;9.232;2023-08-06T00:37:49;99499.13;;;15.12;100.00
21203;BME280;10759;51.982;9.232;2023-08-06T00:40:20;99499.13;;;15.12;100.00
21203;BME280;10759;51.982;9.232;2023-08-06T00:42:48;99492.31;;;15.19;100.00
21203;BME280;10759;51.982;9.232;2023-08-06T00:45:16;99486.38;;;15.14;100.00
21203;BME280;10759;51.982;9.232;2023-08-06T00:47:44;99490.94;;;15.14;100.00
21203;BME280;10759;51.982;9.232;2023-08-06T00:50:13;99486.59;;;15.11;100.00
21203;BME280;10759;51.982;9.232;2023-08-06T00:52:43;99481.63;;;15.05;100.00
21203;BME280;10759;51.982;9.232;2023-08-06T00:55:12;99481.84;;;15.02;100.00
21203;BME280;10759;51.982;9.232;2023-08-06T00:57:40;99471.16;;;15.00;100.00
21203;BME280;10759;51.982;9.232;2023-08-06T01:00:09;99466.44;;;15.04;100.00
21203;BME280;10759;51.982;9.232;2023-08-06T01:02:37;99465.03;;;15.11;100.00
21203;BME280;10759;51.982;9.232;2023-08-06T01:05:06;99465.44;;;15.05;100.00
21203;BME280;10759;51.982;9.232;2023-08-06T01:07:45;99447.84;;;15.12;100.00
21203;BME280;10759;51.982;9.232;2023-08-06T01:10:24;99455.75;;;15.02;100.00
21203;BME280;10759;51.982;9.232;2023-08-06T01:15:46;99424.13;;;14.92;100.00
21203;BME280;10759;51.982;9.232;2023-08-06T01:18:17;99437.63;;;15.05;100.00
21203;BME280;10759;51.982;9.232;2023-08-06T01:20:48;99435.25;;;15.00;100.00
21203;BME280;10759;51.982;9.232;2023-08-06T01:23:17;99431.56;;;15.01;100.00
21203;BME280;10759;51.982;9.232;2023-08-06T01:25:49;99428.13;;;14.99;100.00
21203;BME280;10759;51.982;9.232;2023-08-06T01:28:27;99435.47;;;14.97;100.00
21203;BME280;10759;51.982;9.232;2023-08-06T01:31:02;99442.34;;;15.01;100.00
21203;BME280;10759;51.982;9.232;2023-08-06T01:33:32;99432.00;;;14.95;100.00
21203;BME280;10759;51.982;9.232;2023-08-06T01:36:04;99441.28;;;14.65;100.00
21203;BME280;10759;51.982;9.232;2023-08-06T01:38:33;99431.91;;;14.58;100.00
21203;BME280;10759;51.982;9.232;2023-08-06T01:41:01;99423.81;;;14.58;100.00
21203;BME280;10759;51.982;9.232;2023-08-06T01:43:29;99419.94;;;14.62;100.00
21203;BME280;10759;51.982;9.232;2023-08-06T01:45:57;99425.72;;;14.81;100.00
21203;BME280;10759;51.982;9.232;2023-08-06T01:48:24;99391.88;;;14.77;100.00
21203;BME280;10759;51.982;9.232;2023-08-06T01:50:52;99421.00;;;14.98;100.00
21203;BME280;10759;51.982;9.232;2023-08-06T01:53:22;99414.50;;;15.00;100.00
21203;BME280;10759;51.982;9.232;2023-08-06T01:55:51;99408.25;;;15.00;100.00
21203;BME280;10759;51.982;9.232;2023-08-06T01:58:19;99415.56;;;15.11;100.00
21203;BME280;10759;51.982;9.232;2023-08-06T02:00:47;99408.69;;;15.07;100.00
21203;BME280;10759;51.982;9.232;2023-08-06T02:03:15;99413.44;;;15.03;100.00
21203;BME280;10759;51.982;9.232;2023-08-06T02:05:43;99406.97;;;14.93;100.00
21203;BME280;10759;51.982;9.232;2023-08-06T02:08:12;99402.75;;;14.89;100.00
21203;BME280;10759;51.982;9.232;2023-08-06T02:10:41;99399.09;;;14.90;100.00
21203;BME280;10759;51.982;9.232;2023-08-06T02:13:09;99395.19;;;14.94;100.00
21203;BME280;10759;51.982;9.232;2023-08-06T02:15:42;99393.19;;;14.85;100.00
21203;BME280;10759;51.982;9.232;2023-08-06T02:18:10;99406.53;;;14.86;100.00
21203;BME280;10759;51.982;9.232;2023-08-06T02:20:37;99408.59;;;14.82;100.00
21203;BME280;10759;51.982;9.232;2023-08-06T02:23:06;99395.44;;;14.78;100.00
21203;BME280;10759;51.982;9.232;2023-08-06T02:25:33;99405.69;;;14.86;100.00
21203;BME280;10759;51.982;9.232;2023-08-06T02:28:03;99402.03;;;14.87;100.00
21203;BME280;10759;51.982;9.232;2023-08-06T02:30:31;99403.75;;;14.88;100.00
21203;BME280;10759;51.982;9.232;2023-08-06T02:32:59;99394.88;;;14.86;100.00
21203;BME280;10759;51.982;9.232;2023-08-06T02:35:27;99394.03;;;14.85;100.00
21203;BME280;10759;51.982;9.232;2023-08-06T02:37:55;99387.97;;;14.81;100.00
21203;BME280;10759;51.982;9.232;2023-08-06T02:40:23;99388.44;;;14.75;100.00
21203;BME280;10759;51.982;9.232;2023-08-06T02:42:51;99386.72;;;14.74;100.00
21203;BME280;10759;51.982;9.232;2023-08-06T02:45:20;99383.25;;;14.72;100.00
21203;BME280;10759;51.982;9.232;2023-08-06T02:47:48;99374.41;;;14.70;100.00
21203;BME280;10759;51.982;9.232;2023-08-06T02:50:18;99373.44;;;14.71;100.00
21203;BME280;10759;51.982;9.232;2023-08-06T02:52:46;99374.50;;;14.69;100.00
21203;BME280;10759;51.982;9.232;2023-08-06T02:55:14;99368.25;;;14.68;100.00
21203;BME280;10759;51.982;9.232;2023-08-06T02:57:45;99356.72;;;14.66;100.00
21203;BME280;10759;51.982;9.232;2023-08-06T03:00:13;99354.78;;;14.68;100.00
21203;BME280;10759;51.982;9.232;2023-08-06T03:02:43;99352.00;;;14.70;100.00
21203;BME280;10759;51.982;9.232;2023-08-06T03:05:22;99340.69;;;14.65;100.00
21203;BME280;10759;51.982;9.232;2023-08-06T03:07:50;99300.88;;;14.43;100.00
21203;BME280;10759;51.982;9.232;2023-08-06T03:10:25;99316.19;;;14.55;100.00
21203;BME280;10759;51.982;9.232;2023-08-06T03:12:55;99326.50;;;14.48;100.00
21203;BME280;10759;51.982;9.232;2023-08-06T03:15:23;99309.69;;;14.32;100.00
21203;BME280;10759;51.982;9.232;2023-08-06T03:17:56;99311.66;;;14.43;100.00
21203;BME280;10759;51.982;9.232;2023-08-06T03:20:25;99307.53;;;14.37;100.00
21203;BME280;10759;51.982;9.232;2023-08-06T03:22:53;99313.38;;;14.18;100.00
21203;BME280;10759;51.982;9.232;2023-08-06T03:25:21;99304.63;;;14.27;100.00
21203;BME280;10759;51.982;9.232;2023-08-06T03:27:49;99289.13;;;14.18;100.00
21203;BME280;10759;51.982;9.232;2023-08-06T03:30:18;99305.59;;;14.26;100.00
21203;BME280;10759;51.982;9.232;2023-08-06T03:32:48;99294.81;;;14.26;100.00
21203;BME280;10759;51.982;9.232;2023-08-06T03:35:20;99282.00;;;14.17;100.00
21203;BME280;10759;51.982;9.232;2023-08-06T03:37:48;99295.47;;;14.17;100.00
21203;BME280;10759;51.982;9.232;2023-08-06T03:40:16;99291.59;;;14.08;100.00
21203;BME280;10759;51.982;9.232;2023-08-06T03:42:45;99290.75;;;14.08;100.00
21203;BME280;10759;51.982;9.232;2023-08-06T03:45:13;99306.69;;;13.98;100.00
21203;BME280;10759;51.982;9.232;2023-08-06T03:47:42;99304.47;;;13.90;100.00
21203;BME280;10759;51.982;9.232;2023-08-06T03:50:11;99302.09;;;13.73;100.00
21203;BME280;10759;51.982;9.232;2023-08-06T03:52:40;99302.34;;;13.56;100.00
21203;BME280;10759;51.982;9.232;2023-08-06T03:55:09;99292.34;;;13.45;100.00
21203;BME280;10759;51.982;9.232;2023-08-06T03:57:37;99301.81;;;13.50;100.00
21203;BME280;10759;51.982;9.232;2023-08-06T04:00:06;99297.88;;;13.56;100.00
21203;BME280;10759;51.982;9.232;2023-08-06T04:02:40;99288.13;;;13.53;100.00
21203;BME280;10759;51.982;9.232;2023-08-06T04:05:10;99306.59;;;13.60;100.00
21203;BME280;10759;51.982;9.232;2023-08-06T04:07:40;99297.75;;;13.58;100.00
21203;BME280;10759;51.982;9.232;2023-08-06T04:10:08;99294.53;;;13.65;100.00
21203;BME280;10759;51.982;9.232;2023-08-06T04:12:36;99300.22;;;13.61;100.00
21203;BME280;10759;51.982;9.232;2023-08-06T04:15:06;99301.41;;;13.57;100.00
21203;BME280;10759;51.982;9.232;2023-08-06T04:17:34;99306.38;;;13.63;100.00
21203;BME280;10759;51.982;9.232;2023-08-06T04:20:04;99302.72;;;13.64;100.00
21203;BME280;10759;51.982;9.232;2023-08-06T04:22:32;99304.44;;;13.65;100.00
21203;BME280;10759;51.982;9.232;2023-08-06T04:25:03;99306.81;;;13.69;100.00
21203;BME280;10759;51.982;9.232;2023-08-06T04:27:31;99304.03;;;13.71;100.00
21203;BME280;10759;51.982;9.232;2023-08-06T04:29:59;99300.06;;;13.77;100.00
21203;BME280;10759;51.982;9.232;2023-08-06T04:32:27;99307.75;;;13.95;100.00
21203;BME280;10759;51.982;9.232;2023-08-06T04:34:55;99309.69;;;13.93;100.00
21203;BME280;10759;51.982;9.232;2023-08-06T04:37:24;99309.69;;;13.93;100.00
21203;BME280;10759;51.982;9.232;2023-08-06T04:39:52;99312.25;;;13.95;100.00
21203;BME280;10759;51.982;9.232;2023-08-06T04:42:21;99315.63;;;13.99;100.00
21203;BME280;10759;51.982;9.232;2023-08-06T04:44:49;99301.59;;;13.93;100.00
21203;BME280;10759;51.982;9.232;2023-08-06T04:47:17;99317.31;;;14.12;100.00
21203;BME280;10759;51.982;9.232;2023-08-06T04:49:45;99321.53;;;14.16;100.00
21203;BME280;10759;51.982;9.232;2023-08-06T04:52:13;99322.84;;;14.11;100.00
21203;BME280;10759;51.982;9.232;2023-08-06T04:54:40;99324.31;;;14.02;100.00
21203;BME280;10759;51.982;9.232;2023-08-06T04:57:08;99318.84;;;14.04;100.00
21203;BME280;10759;51.982;9.232;2023-08-06T04:59:38;99321.31;;;13.94;100.00
21203;BME280;10759;51.982;9.232;2023-08-06T05:02:06;99327.56;;;13.94;100.00
21203;BME280;10759;51.982;9.232;2023-08-06T05:04:34;99325.84;;;13.93;100.00
21203;BME280;10759;51.982;9.232;2023-08-06T05:07:02;99319.59;;;14.06;100.00
21203;BME280;10759;51.982;9.232;2023-08-06T05:09:30;99328.41;;;13.95;100.00
21203;BME280;10759;51.982;9.232;2023-08-06T05:12:00;99328.75;;;14.03;100.00
21203;BME280;10759;51.982;9.232;2023-08-06T05:14:28;99321.94;;;13.98;100.00
21203;BME280;10759;51.982;9.232;2023-08-06T05:16:57;99319.69;;;14.04;100.00
21203;BME280;10759;51.982;9.232;2023-08-06T05:19:25;99316.47;;;14.12;100.00
21203;BME280;10759;51.982;9.232;2023-08-06T05:21:53;99319.94;;;14.14;100.00
21203;BME280;10759;51.982;9.232;2023-08-06T05:24:21;99328.78;;;14.16;100.00
21203;BME280;10759;51.982;9.232;2023-08-06T05:26:49;99322.84;;;14.11;100.00
21203;BME280;10759;51.982;9.232;2023-08-06T05:29:17;99318.44;;;14.23;100.00
21203;BME280;10759;51.982;9.232;2023-08-06T05:31:44;99325.53;;;14.24;100.00
21203;BME280;10759;51.982;9.232;2023-08-06T05:34:14;99320.91;;;14.38;100.00
21203;BME280;10759;51.982;9.232;2023-08-06T05:36:41;99326.59;;;14.47;100.00
21203;BME280;10759;51.982;9.232;2023-08-06T05:39:09;99318.13;;;14.66;100.00
21203;BME280;10759;51.982;9.232;2023-08-06T05:41:37;99319.09;;;14.77;100.00
21203;BME280;10759;51.982;9.232;2023-08-06T05:44:05;99319.72;;;14.81;100.00
21203;BME280;10759;51.982;9.232;2023-08-06T05:46:33;99310.34;;;14.74;100.00
21203;BME280;10759;51.982;9.232;2023-08-06T05:49:01;99318.66;;;14.71;100.00
21203;BME280;10759;51.982;9.232;2023-08-06T05:51:30;99308.06;;;14.80;100.00
21203;BME280;10759;51.982;9.232;2023-08-06T05:53:58;99316.59;;;14.87;100.00
21203;BME280;10759;51.982;9.232;2023-08-06T05:56:25;99321.66;;;14.79;100.00
21203;BME280;10759;51.982;9.232;2023-08-06T05:58:53;99326.63;;;14.72;100.00
21203;BME280;10759;51.982;9.232;2023-08-06T06:01:21;99324.25;;;14.80;100.00
21203;BME280;10759;51.982;9.232;2023-08-06T06:03:50;99323.44;;;15.04;100.00
21203;BME280;10759;51.982;9.232;2023-08-06T06:06:17;99323.25;;;14.94;100.00
21203;BME280;10759;51.982;9.232;2023-08-06T06:08:48;99315.50;;;14.90;100.00
21203;BME280;10759;51.982;9.232;2023-08-06T06:11:16;99318.34;;;15.12;100.00
21203;BME280;10759;51.982;9.232;2023-08-06T06:13:46;99310.91;;;15.40;100.00
21203;BME280;10759;51.982;9.232;2023-08-06T06:16:14;99316.91;;;15.80;100.00
21203;BME280;10759;51.982;9.232;2023-08-06T06:18:41;99323.38;;;16.13;100.00
21203;BME280;10759;51.982;9.232;2023-08-06T06:21:09;99323.53;;;16.23;100.00
21203;BME280;10759;51.982;9.232;2023-08-06T06:23:37;99321.84;;;16.44;100.00
21203;BME280;10759;51.982;9.232;2023-08-06T06:26:06;99308.19;;;16.35;100.00
21203;BME280;10759;51.982;9.232;2023-08-06T06:28:34;99309.91;;;16.47;100.00
21203;BME280;10759;51.982;9.232;2023-08-06T06:31:02;99309.94;;;16.69;100.00
21203;BME280;10759;51.982;9.232;2023-08-06T06:33:30;99305.00;;;17.08;100.00
21203;BME280;10759;51.982;9.232;2023-08-06T06:35:58;99306.72;;;17.09;100.00
21203;BME280;10759;51.982;9.232;2023-08-06T06:38:26;99297.47;;;17.23;100.00
21203;BME280;10759;51.982;9.232;2023-08-06T06:40:54;99290.69;;;17.29;100.00
21203;BME280;10759;51.982;9.232;2023-08-06T06:43:24;99300.19;;;17.23;100.00
21203;BME280;10759;51.982;9.232;2023-08-06T06:45:52;99290.38;;;17.00;100.00
21203;BME280;10759;51.982;9.232;2023-08-06T06:48:21;99283.69;;;17.26;100.00
21203;BME280;10759;51.982;9.232;2023-08-06T06:50:49;99290.69;;;17.61;100.00
21203;BME280;10759;51.982;9.232;2023-08-06T06:53:17;99292.16;;;17.97;100.00
21203;BME280;10759;51.982;9.232;2023-08-06T06:55:45;99289.91;;;18.02;100.00
21203;BME280;10759;51.982;9.232;2023-08-06T06:58:15;99277.88;;;18.16;100.00
21203;BME280;10759;51.982;9.232;2023-08-06T07:00:45;99272.94;;;17.68;100.00
21203;BME280;10759;51.982;9.232;2023-08-06T07:03:13;99285.81;;;18.08;100.00
21203;BME280;10759;51.982;9.232;2023-08-06T07:05:42;99279.09;;;18.33;100.00
21203;BME280;10759;51.982;9.232;2023-08-06T07:08:10;99274.81;;;18.31;100.00
21203;BME280;10759;51.982;9.232;2023-08-06T07:10:40;99279.75;;;18.47;100.00
21203;BME280;10759;51.982;9.232;2023-08-06T07:13:09;99279.53;;;18.29;100.00
21203;BME280;10759;51.982;9.232;2023-08-06T07:15:37;99275.59;;;17.47;100.00
21203;BME280;10759;51.982;9.232;2023-08-06T07:18:07;99272.66;;;17.50;100.00
21203;BME280;10759;51.982;9.232;2023-08-06T07:20:35;99254.66;;;17.49;100.00
21203;BME280;10759;51.982;9.232;2023-08-06T07:23:03;99264.91;;;18.20;100.00
21203;BME280;10759;51.982;9.232;2023-08-06T07:25:34;99266.19;;;18.47;100.00
21203;BME280;10759;51.982;9.232;2023-08-06T07:28:02;99265.41;;;18.65;100.00
21203;BME280;10759;51.982;9.232;2023-08-06T07:30:30;99232.59;;;18.69;100.00
21203;BME280;10759;51.982;9.232;2023-08-06T07:32:59;99237.72;;;19.12;100.00
21203;BME280;10759;51.982;9.232;2023-08-06T07:35:29;99254.13;;;18.30;100.00
21203;BME280;10759;51.982;9.232;2023-08-06T07:37:57;99254.22;;;18.49;100.00
21203;BME280;10759;51.982;9.232;2023-08-06T07:40:25;99236.22;;;18.48;100.00
21203;BME280;10759;51.982;9.232;2023-08-06T07:42:53;99249.25;;;18.54;100.00
21203;BME280;10759;51.982;9.232;2023-08-06T07:45:21;99240.66;;;18.49;100.00
21203;BME280;10759;51.982;9.232;2023-08-06T07:47:49;99248.00;;;18.99;100.00
21203;BME280;10759;51.982;9.232;2023-08-06T07:50:18;99245.38;;;18.87;100.00
21203;BME280;10759;51.982;9.232;2023-08-06T07:52:47;99250.47;;;19.31;100.00
21203;BME280;10759;51.982;9.232;2023-08-06T07:55:15;99252.03;;;19.24;100.00
21203;BME280;10759;51.982;9.232;2023-08-06T07:57:43;99249.03;;;19.27;100.00
21203;BME280;10759;51.982;9.232;2023-08-06T08:00:11;99258.81;;;19.78;100.00
21203;BME280;10759;51.982;9.232;2023-08-06T08:02:40;99254.19;;;19.98;100.00
21203;BME280;10759;51.982;9.232;2023-08-06T08:05:08;99261.78;;;20.14;100.00
21203;BME280;10759;51.982;9.232;2023-08-06T08:07:36;99256.22;;;19.96;99.08
21203;BME280;10759;51.982;9.232;2023-08-06T08:10:06;99246.94;;;20.46;99.46
21203;BME280;10759;51.982;9.232;2023-08-06T08:12:34;99254.34;;;20.53;93.22
21203;BME280;10759;51.982;9.232;2023-08-06T08:15:03;99247.31;;;20.70;95.13
21203;BME280;10759;51.982;9.232;2023-08-06T08:17:31;99242.97;;;20.77;92.71
21203;BME280;10759;51.982;9.232;2023-08-06T08:19:59;99239.53;;;20.75;96.59
21203;BME280;10759;51.982;9.232;2023-08-06T08:22:26;99242.31;;;20.66;96.82
21203;BME280;10759;51.982;9.232;2023-08-06T08:24:54;99240.25;;;20.77;97.66
21203;BME280;10759;51.982;9.232;2023-08-06T08:27:23;99240.44;;;20.09;90.50
21203;BME280;10759;51.982;9.232;2023-08-06T08:29:52;99240.50;;;19.90;93.94
21203;BME280;10759;51.982;9.232;2023-08-06T08:32:20;99244.34;;;19.87;93.75
21203;BME280;10759;51.982;9.232;2023-08-06T08:34:48;99234.41;;;20.72;97.75
21203;BME280;10759;51.982;9.232;2023-08-06T08:37:16;99233.28;;;20.65;92.60
21203;BME280;10759;51.982;9.232;2023-08-06T08:39:44;99235.03;;;20.84;91.61
21203;BME280;10759;51.982;9.232;2023-08-06T08:42:12;99240.06;;;21.07;91.69
21203;BME280;10759;51.982;9.232;2023-08-06T08:44:42;99232.16;;;21.31;89.88
21203;BME280;10759;51.982;9.232;2023-08-06T08:47:10;99233.28;;;21.74;86.35
21203;BME280;10759;51.982;9.232;2023-08-06T08:49:38;99230.97;;;22.05;88.89
21203;BME280;10759;51.982;9.232;2023-08-06T08:52:10;99239.53;;;22.37;92.00
21203;BME280;10759;51.982;9.232;2023-08-06T08:54:39;99234.88;;;22.55;84.05
21203;BME280;10759;51.982;9.232;2023-08-06T08:57:08;99231.56;;;22.69;81.68
21203;BME280;10759;51.982;9.232;2023-08-06T08:59:36;99221.44;;;22.27;79.78
21203;BME280;10759;51.982;9.232;2023-08-06T09:02:07;99234.38;;;21.81;80.81
21203;BME280;10759;51.982;9.232;2023-08-06T09:04:37;99234.53;;;21.62;84.88
21203;BME280;10759;51.982;9.232;2023-08-06T09:07:05;99221.06;;;21.60;86.74
21203;BME280;10759;51.982;9.232;2023-08-06T09:09:35;99222.16;;;21.50;83.26
21203;BME280;10759;51.982;9.232;2023-08-06T09:12:12;99225.28;;;21.55;84.18
21203;BME280;10759;51.982;9.232;2023-08-06T09:14:40;99228.84;;;21.55;81.98
21203;BME280;10759;51.982;9.232;2023-08-06T09:17:10;99224.47;;;21.27;88.88
21203;BME280;10759;51.982;9.232;2023-08-06T09:19:41;99214.81;;;21.14;80.93
21203;BME280;10759;51.982;9.232;2023-08-06T09:22:12;99225.69;;;21.14;82.00
21203;BME280;10759;51.982;9.232;2023-08-06T09:24:41;99223.22;;;20.75;80.74
21203;BME280;10759;51.982;9.232;2023-08-06T09:27:13;99224.72;;;20.88;86.82
21203;BME280;10759;51.982;9.232;2023-08-06T09:29:42;99224.34;;;21.00;85.39
21203;BME280;10759;51.982;9.232;2023-08-06T09:32:13;99227.84;;;20.93;85.30
21203;BME280;10759;51.982;9.232;2023-08-06T09:34:42;99196.00;;;20.75;84.26
21203;BME280;10759;51.982;9.232;2023-08-06T09:37:10;99216.97;;;21.29;80.42
21203;BME280;10759;51.982;9.232;2023-08-06T09:39:39;99215.53;;;21.52;78.69
21203;BME280;10759;51.982;9.232;2023-08-06T09:42:07;99216.63;;;21.59;78.66
21203;BME280;10759;51.982;9.232;2023-08-06T09:44:35;99222.00;;;21.69;78.34
21203;BME280;10759;51.982;9.232;2023-08-06T09:47:05;99207.38;;;21.52;81.97
21203;BME280;10759;51.982;9.232;2023-08-06T09:49:53;99216.06;;;21.74;82.48
21203;BME280;10759;51.982;9.232;2023-08-06T09:52:21;99205.69;;;21.77;83.32
21203;BME280;10759;51.982;9.232;2023-08-06T09:54:50;99214.06;;;21.76;81.00
21203;BME280;10759;51.982;9.232;2023-08-06T09:57:19;99215.06;;;21.57;76.32
21203;BME280;10759;51.982;9.232;2023-08-06T09:59:48;99212.19;;;21.40;75.11
21203;BME280;10759;51.982;9.232;2023-08-06T10:02:17;99200.47;;;21.30;76.40
21203;BME280;10759;51.982;9.232;2023-08-06T10:04:47;99208.69;;;21.66;83.15
21203;BME280;10759;51.982;9.232;2023-08-06T10:07:22;99205.31;;;21.72;72.44
21203;BME280;10759;51.982;9.232;2023-08-06T10:09:51;99201.97;;;22.04;73.17
21203;BME280;10759;51.982;9.232;2023-08-06T10:12:19;99193.09;;;22.20;74.31
21203;BME280;10759;51.982;9.232;2023-08-06T10:14:47;99194.56;;;21.17;74.78
21203;BME280;10759;51.982;9.232;2023-08-06T10:17:17;99193.03;;;21.14;73.87
21203;BME280;10759;51.982;9.232;2023-08-06T10:19:45;99191.06;;;21.60;77.39
21203;BME280;10759;51.982;9.232;2023-08-06T10:22:14;99183.88;;;22.21;75.54
21203;BME280;10759;51.982;9.232;2023-08-06T10:24:51;99174.72;;;22.31;71.78
21203;BME280;10759;51.982;9.232;2023-08-06T10:27:20;99167.47;;;22.47;72.30
21203;BME280;10759;51.982;9.232;2023-08-06T10:29:49;99176.44;;;22.74;75.93
21203;BME280;10759;51.982;9.232;2023-08-06T10:32:17;99169.41;;;22.63;72.40
21203;BME280;10759;51.982;9.232;2023-08-06T10:34:53;99170.44;;;22.70;71.08
21203;BME280;10759;51.982;9.232;2023-08-06T10:37:22;99148.63;;;22.28;67.98
21203;BME280;10759;51.982;9.232;2023-08-06T10:39:52;99157.81;;;22.27;74.86
21203;BME280;10759;51.982;9.232;2023-08-06T10:42:27;99163.44;;;22.25;72.94
21203;BME280;10759;51.982;9.232;2023-08-06T10:45:11;99157.47;;;22.04;67.10
21203;BME280;10759;51.982;9.232;2023-08-06T10:47:40;99166.16;;;21.99;72.19
21203;BME280;10759;51.982;9.232;2023-08-06T10:50:12;99157.38;;;21.87;72.06
21203;BME280;10759;51.982;9.232;2023-08-06T10:52:40;99161.72;;;21.98;71.18
21203;BME280;10759;51.982;9.232;2023-08-06T10:55:09;99159.03;;;22.06;73.73
21203;BME280;10759;51.982;9.232;2023-08-06T10:57:38;99153.53;;;21.98;72.14
21203;BME280;10759;51.982;9.232;2023-08-06T11:00:07;99146.84;;;21.93;74.87
21203;BME280;10759;51.982;9.232;2023-08-06T11:02:43;99151.72;;;22.33;75.03
21203;BME280;10759;51.982;9.232;2023-08-06T11:05:12;99155.63;;;22.73;68.17
21203;BME280;10759;51.982;9.232;2023-08-06T11:07:40;99143.16;;;22.79;72.47
21203;BME280;10759;51.982;9.232;2023-08-06T11:10:11;99152.50;;;23.02;69.43
21203;BME280;10759;51.982;9.232;2023-08-06T11:12:39;99147.09;;;22.76;67.91
21203;BME280;10759;51.982;9.232;2023-08-06T11:15:08;99143.56;;;22.92;76.33
21203;BME280;10759;51.982;9.232;2023-08-06T11:17:37;99141.84;;;22.91;69.00
21203;BME280;10759;51.982;9.232;2023-08-06T11:20:07;99141.47;;;22.69;69.80
21203;BME280;10759;51.982;9.232;2023-08-06T11:22:36;99140.09;;;22.31;71.96
21203;BME280;10759;51.982;9.232;2023-08-06T11:25:05;99137.81;;;22.18;72.33
21203;BME280;10759;51.982;9.232;2023-08-06T11:27:35;99131.78;;;22.15;72.44
21203;BME280;10759;51.982;9.232;2023-08-06T11:30:04;99129.75;;;22.17;70.44
21203;BME280;10759;51.982;9.232;2023-08-06T11:32:32;99132.03;;;22.21;69.03
21203;BME280;10759;51.982;9.232;2023-08-06T11:35:09;99127.34;;;22.05;69.08
21203;BME280;10759;51.982;9.232;2023-08-06T11:37:39;99129.88;;;22.07;71.67
21203;BME280;10759;51.982;9.232;2023-08-06T11:40:11;99113.38;;;22.08;71.94
21203;BME280;10759;51.982;9.232;2023-08-06T11:42:40;99123.63;;;22.15;73.13
21203;BME280;10759;51.982;9.232;2023-08-06T11:45:09;99117.84;;;22.18;73.28
21203;BME280;10759;51.982;9.232;2023-08-06T11:47:38;99127.50;;;22.30;72.44
21203;BME280;10759;51.982;9.232;2023-08-06T11:50:07;99115.91;;;22.36;69.37
21203;BME280;10759;51.982;9.232;2023-08-06T11:52:39;99115.88;;;22.28;70.56
21203;BME280;10759;51.982;9.232;2023-08-06T11:55:09;99117.91;;;22.26;73.60
21203;BME280;10759;51.982;9.232;2023-08-06T11:57:37;99116.31;;;22.15;69.27
21203;BME280;10759;51.982;9.232;2023-08-06T12:00:10;99107.63;;;22.20;70.18
21203;BME280;10759;51.982;9.232;2023-08-06T12:02:39;99074.78;;;22.29;69.45
21203;BME280;10759;51.982;9.232;2023-08-06T12:05:11;99107.16;;;22.75;69.64
21203;BME280;10759;51.982;9.232;2023-08-06T12:07:40;99102.03;;;22.72;62.67
21203;BME280;10759;51.982;9.232;2023-08-06T12:10:09;99104.59;;;22.73;63.49
21203;BME280;10759;51.982;9.232;2023-08-06T12:12:37;99094.84;;;22.71;61.49
21203;BME280;10759;51.982;9.232;2023-08-06T12:15:06;99070.00;;;22.23;64.57
21203;BME280;10759;51.982;9.232;2023-08-06T12:17:36;99088.91;;;22.84;64.95
21203;BME280;10759;51.982;9.232;2023-08-06T12:20:05;99099.31;;;22.80;63.66
21203;BME280;10759;51.982;9.232;2023-08-06T12:22:34;99093.66;;;22.57;70.47
21203;BME280;10759;51.982;9.232;2023-08-06T12:25:03;99092.03;;;22.30;73.21
21203;BME280;10759;51.982;9.232;2023-08-06T12:27:33;99099.72;;;22.08;75.02
21203;BME280;10759;51.982;9.232;2023-08-06T12:30:01;99101.88;;;21.97;77.54
21203;BME280;10759;51.982;9.232;2023-08-06T12:32:30;99104.75;;;21.95;75.56
21203;BME280;10759;51.982;9.232;2023-08-06T12:34:59;99115.91;;;21.76;74.72
21203;BME280;10759;51.982;9.232;2023-08-06T12:37:28;99095.09;;;21.75;74.61
21203;BME280;10759;51.982;9.232;2023-08-06T12:39:56;99111.75;;;21.63;75.57
21203;BME280;10759;51.982;9.232;2023-08-06T12:42:24;99109.22;;;21.70;75.05
21203;BME280;10759;51.982;9.232;2023-08-06T12:44:52;99101.50;;;21.65;76.01
21203;BME280;10759;51.982;9.232;2023-08-06T12:47:20;99098.16;;;21.72;75.74
21203;BME280;10759;51.982;9.232;2023-08-06T12:49:47;99096.56;;;21.61;74.42
21203;BME280;10759;51.982;9.232;2023-08-06T12:52:17;99065.63;;;21.44;78.28
21203;BME280;10759;51.982;9.232;2023-08-06T12:54:46;99091.84;;;21.71;77.48
21203;BME280;10759;51.982;9.232;2023-08-06T12:57:14;99095.16;;;21.57;74.79
21203;BME280;10759;51.982;9.232;2023-08-06T12:59:42;99101.19;;;21.42;78.52
21203;BME280;10759;51.982;9.232;2023-08-06T13:02:09;99099.31;;;21.43;79.41
21203;BME280;10759;51.982;9.232;2023-08-06T13:04:37;99101.88;;;21.44;83.35